Kezdőlap
METAR-TAF:

METAR-TAF

Repülőterek :

Rutland Southern Vermont Regional Airport

Rutland, Vermont, Amerikai Egyesült Államok

földrajzi szélesség: 43-32N, földrajzi hosszúság: 072-57W, magasság: 240 m

Jelenlegi meteorológiai megfigyelések

A jelentés 34 perccel ezelõtt készült, 16:56 UTC
Különbözõ irányokból fújó szél 6 kt
Hőmérséklet 7°C
Páratartalom 42%
Légköri nyomás 1019 hPa
Látótávolság: 16.1 km
Derült ég

METAR: KRUT 231656Z AUTO VRB06KT 10SM CLR 07/M05 A3008 RMK AO2 SLP186 T00671050 $

Idő: 12:30 (17:30 UTC)

Előrejelzés

A jelentés 6 órával és 10 perccel ezelõtt készült, 11:20 UTC
Az előrejelzés 23-én 12 óra UTC és 24-én 12 óra UTC között érvényes
Nyugat-délnyugati szél 5 kt
Látótávolság: 10 km
Kevés felhő 25000 lábon

TAF: KRUT 231120Z 2312/2412 25005KT P6SM FEW250

Meteorológiai megfigyelések és előrejelzések több, mint 4000 repülőtéren (METAR és TAF jelentéseket).

A térképen piros és sárga pontok jelzik az elérhető meteorológiai állomásokat.

Mozgassa az egeret a pont fölött, hogy megjelenjen az állomás neve.

Azután kattintson az időjárási megfigyelések és előrejelzések megtekintéséhez.

A térkép megváltoztatása: kattintson a fekete keresztel jelölt zöld gombra ráközelítéshez, a vonallal jelölt zöld gombra távolításhoz, vagy a zöld nyilakra a szomszédos térképek eléréséhez.


METAR-TAF: